Time;durP1;ratioP1;P1;durP2;ratioP2;P2;SDS_P1;SDS_P2;PMS_P1;PMS_P2;Temp;Humidity;BMP_temperature;BMP_pressure;BME280_temperature;BME280_humidity;BME280_pressure;Samples;Min_cycle;Max_cycle;Signal;HPM_P1;HPM_P2
2023/09/07 00:01:19;;;;;;;;;;;;;;;25.84;47.39;101523.28;5074210;28;19924;-60
2023/09/07 00:03:46;;;;;;;;;;;;;;;25.85;47.41;101521.47;5074453;28;19924;-60
2023/09/07 00:06:14;;;;;;;;;;;;;;;25.84;47.29;101517.03;5074000;28;19924;-60
2023/09/07 00:08:41;;;;;;;;;;;;;;;25.85;47.38;101516.88;5074261;28;20381;-59
2023/09/07 00:11:09;;;;;;;;;;;;;;;25.84;47.38;101517.03;5073988;28;19925;-60
2023/09/07 00:13:36;;;;;;;;;;;;;;;25.85;47.21;101521.47;5073779;28;19924;-60
2023/09/07 00:16:04;;;;;;;;;;;;;;;25.85;47.19;101518.75;5074057;28;19931;-60
2023/09/07 00:18:31;;;;;;;;;;;;;;;25.84;47.21;101523.28;5073692;28;19947;-59
2023/09/07 00:20:59;;;;;;;;;;;;;;;25.84;47.32;101522.44;5073486;28;19924;-60
2023/09/07 00:23:27;;;;;;;;;;;;;;;25.84;47.32;101517.03;5073532;28;19932;-60
2023/09/07 00:25:54;;;;;;;;;;;;;;;25.83;47.28;101510.75;5074045;28;19931;-60
2023/09/07 00:28:21;;;;;;;;;;;;;;;25.84;47.35;101517.03;5074133;28;20309;-58
2023/09/07 00:30:49;;;;;;;;;;;;;;;25.84;47.48;101520.59;5073906;28;19925;-58
2023/09/07 00:33:16;;;;;;;;;;;;;;;25.85;47.29;101518.75;5072374;28;19924;-58
2023/09/07 00:35:43;;;;;;;;;;;;;;;25.84;47.52;101517.03;5073741;28;19925;-58
2023/09/07 00:38:11;;;;;;;;;;;;;;;25.85;47.46;101507.91;5074082;28;19948;-59
2023/09/07 00:40:42;;;;;;;;;;;;;;;25.84;47.42;101517.03;5069696;28;19924;-60
2023/09/07 00:43:09;;;;;;;;;;;;;;;25.84;47.46;101517.03;5073987;28;19924;-60
2023/09/07 00:45:37;;;;;;;;;;;;;;;25.84;47.31;101517.03;5072299;28;19924;-59
2023/09/07 00:48:04;;;;;;;;;;;;;;;25.84;47.33;101514.31;5072528;28;19932;-58
2023/09/07 00:50:32;;;;;;;;;;;;;;;25.84;47.40;101522.44;5073809;28;19925;-58
2023/09/07 00:52:59;;;;;;;;;;;;;;;25.84;47.35;101522.44;5074075;28;19931;-58
2023/09/07 00:55:27;;;;;;;;;;;;;;;25.83;47.56;101526.19;5072340;28;19925;-58
2023/09/07 00:57:55;;;;;;;;;;;;;;;25.83;47.63;101532.44;5072519;28;19928;-58
2023/09/07 01:00:22;;;;;;;;;;;;;;;25.83;47.61;101527.03;5072150;28;19931;-58
2023/09/07 01:02:50;;;;;;;;;;;;;;;25.84;47.46;101527.88;5073627;28;19948;-58
2023/09/07 01:05:19;;;;;;;;;;;;;;;25.84;47.51;101536.00;5073712;28;19931;-58
2023/09/07 01:07:50;;;;;;;;;;;;;;;25.83;47.54;101537.88;5071866;28;19925;-59
2023/09/07 01:10:18;;;;;;;;;;;;;;;25.83;47.48;101537.88;5073425;28;19928;-58
2023/09/07 01:12:46;;;;;;;;;;;;;;;25.84;47.43;101538.72;5072129;28;20389;-58
2023/09/07 01:15:14;;;;;;;;;;;;;;;25.84;47.42;101533.28;5105352;28;20007;-59
2023/09/07 01:17:43;;;;;;;;;;;;;;;25.83;47.53;101534.31;5071507;28;20306;-59
2023/09/07 01:20:12;;;;;;;;;;;;;;;25.83;47.51;101534.31;5073009;28;20310;-58
2023/09/07 01:22:40;;;;;;;;;;;;;;;25.83;47.29;101531.59;5072684;28;19932;-58
2023/09/07 01:25:08;;;;;;;;;;;;;;;25.82;47.52;101528.03;5084386;28;19924;-58
2023/09/07 01:27:35;;;;;;;;;;;;;;;25.84;47.37;101533.28;5077460;28;19929;-58
2023/09/07 01:30:03;;;;;;;;;;;;;;;25.82;47.47;101530.75;5075572;28;19924;-59
2023/09/07 01:32:31;;;;;;;;;;;;;;;25.82;47.25;101525.34;5077171;28;20303;-60
2023/09/07 01:34:59;;;;;;;;;;;;;;;25.83;47.63;101518.03;5076962;28;19924;-60
2023/09/07 01:37:26;;;;;;;;;;;;;;;25.84;47.50;101522.44;5075384;28;19924;-59
2023/09/07 01:39:53;;;;;;;;;;;;;;;25.83;47.53;101507.19;5076839;28;19947;-59
2023/09/07 01:42:21;;;;;;;;;;;;;;;25.83;47.49;101515.31;5108783;28;19925;-60
2023/09/07 01:44:49;;;;;;;;;;;;;;;25.83;47.63;101513.47;5068900;28;19924;-60
2023/09/07 01:47:16;;;;;;;;;;;;;;;25.83;47.47;101515.31;5075588;28;20378;-59
2023/09/07 01:49:44;;;;;;;;;;;;;;;25.83;47.47;101516.19;5075423;28;19931;-58
2023/09/07 01:52:11;;;;;;;;;;;;;;;25.82;47.68;101509.06;5076744;28;20298;-58
2023/09/07 01:54:38;;;;;;;;;;;;;;;25.82;47.57;101509.06;5075144;28;19924;-58
2023/09/07 01:57:05;;;;;;;;;;;;;;;25.84;47.54;101508.88;5075340;28;19935;-58
2023/09/07 01:59:33;;;;;;;;;;;;;;;25.84;47.66;101503.47;5076173;28;19932;-58
2023/09/07 02:02:00;;;;;;;;;;;;;;;25.83;47.44;101507.19;5074791;28;19924;-58
2023/09/07 02:04:27;;;;;;;;;;;;;;;25.83;47.49;101508.03;5076711;28;19925;-58
2023/09/07 02:06:54;;;;;;;;;;;;;;;25.84;47.61;101504.31;5076433;28;19931;-57
2023/09/07 02:09:21;;;;;;;;;;;;;;;25.84;47.56;101500.75;5075884;28;20375;-59
2023/09/07 02:11:49;;;;;;;;;;;;;;;25.84;47.54;101511.59;5074801;28;19931;-59
2023/09/07 02:14:17;;;;;;;;;;;;;;;25.84;47.52;101509.72;5074857;28;19931;-59
2023/09/07 02:16:44;;;;;;;;;;;;;;;25.84;47.60;101506.16;5076147;28;20298;-60
2023/09/07 02:19:12;;;;;;;;;;;;;;;25.84;47.32;101508.88;5074200;28;19939;-58
2023/09/07 02:21:40;;;;;;;;;;;;;;;25.83;47.42;101508.03;5074293;28;19924;-58
2023/09/07 02:24:08;;;;;;;;;;;;;;;25.85;47.41;101502.47;5074572;28;19931;-58
2023/09/07 02:26:35;;;;;;;;;;;;;;;25.84;47.31;101508.88;5074522;28;19924;-58
2023/09/07 02:29:06;;;;;;;;;;;;;;;25.83;47.49;101508.03;5076282;28;20283;-58
2023/09/07 02:31:34;;;;;;;;;;;;;;;25.84;47.40;101500.75;5074754;28;20393;-58
2023/09/07 02:34:01;;;;;;;;;;;;;;;25.84;47.17;101511.59;5076011;28;19924;-58
2023/09/07 02:36:29;;;;;;;;;;;;;;;25.83;47.46;101502.63;5074352;28;19936;-58
2023/09/07 02:38:56;;;;;;;;;;;;;;;25.84;47.25;101506.16;5074582;28;19936;-58
2023/09/07 02:41:24;;;;;;;;;;;;;;;25.83;47.38;101507.19;5074481;28;19947;-58
2023/09/07 02:43:51;;;;;;;;;;;;;;;25.83;47.35;101509.91;5074087;28;19932;-58
2023/09/07 02:46:18;;;;;;;;;;;;;;;25.83;47.23;101512.63;5073461;28;19933;-58
2023/09/07 02:48:46;;;;;;;;;;;;;;;25.83;47.48;101515.31;5066599;28;20413;-59
2023/09/07 02:51:13;;;;;;;;;;;;;;;25.83;47.41;101515.31;5075412;28;19924;-60
2023/09/07 02:53:41;;;;;;;;;;;;;;;25.83;47.26;101509.91;5074436;28;19931;-60
2023/09/07 02:56:10;;;;;;;;;;;;;;;25.83;47.46;101512.63;5073402;28;19925;-59
2023/09/07 02:58:39;;;;;;;;;;;;;;;25.83;47.25;101518.03;5066824;28;19924;-58
2023/09/07 03:01:10;;;;;;;;;;;;;;;25.82;47.16;101516.34;5073897;28;19928;-58
2023/09/07 03:03:37;;;;;;;;;;;;;;;25.83;47.43;101509.91;5075475;28;19932;-58
2023/09/07 03:06:08;;;;;;;;;;;;;;;25.82;47.27;101521.78;5073443;28;19931;-58
2023/09/07 03:08:36;;;;;;;;;;;;;;;25.82;47.20;101509.06;5075323;28;19924;-58
2023/09/07 03:11:04;;;;;;;;;;;;;;;25.83;47.26;101515.31;5073526;28;19924;-58
2023/09/07 03:13:32;;;;;;;;;;;;;;;25.81;47.23;101518.22;5075078;28;19931;-57
2023/09/07 03:15:59;;;;;;;;;;;;;;;25.81;47.14;101523.63;5073941;28;20401;-58
2023/09/07 03:18:26;;;;;;;;;;;;;;;25.81;47.25;101518.22;5073741;28;20303;-59
2023/09/07 03:20:55;;;;;;;;;;;;;;;25.82;47.28;101517.19;5106683;28;19924;-59
2023/09/07 03:23:26;;;;;;;;;;;;;;;25.81;47.34;101506.50;5073657;28;19924;-59
2023/09/07 03:25:54;;;;;;;;;;;;;;;25.81;47.24;101514.66;5073430;28;19928;-60
2023/09/07 03:28:21;;;;;;;;;;;;;;;25.81;47.25;101514.66;5074975;28;19931;-58
2023/09/07 03:30:48;;;;;;;;;;;;;;;25.81;47.40;101517.38;5073411;28;19936;-57
2023/09/07 03:33:15;;;;;;;;;;;;;;;25.80;47.27;101518.34;5073490;28;19932;-58
2023/09/07 03:35:43;;;;;;;;;;;;;;;25.80;47.27;101513.78;5074375;28;19929;-58
2023/09/07 03:38:10;;;;;;;;;;;;;;;25.81;47.15;101525.50;5074407;28;19925;-58
2023/09/07 03:40:37;;;;;;;;;;;;;;;25.81;47.21;101514.66;5072694;28;20386;-57
2023/09/07 03:43:04;;;;;;;;;;;;;;;25.80;47.40;101515.63;5072421;28;19939;-57
2023/09/07 03:45:31;;;;;;;;;;;;;;;25.80;47.27;101518.34;5072239;28;20287;-57
2023/09/07 03:47:59;;;;;;;;;;;;;;;25.79;47.32;101525.63;5073198;28;20378;-59
2023/09/07 03:50:28;;;;;;;;;;;;;;;25.80;47.38;101521.06;5072928;28;19929;-59
2023/09/07 03:52:55;;;;;;;;;;;;;;;25.80;47.31;101523.78;5073001;28;19924;-60
2023/09/07 03:55:22;;;;;;;;;;;;;;;25.80;47.23;101526.47;5072959;28;19931;-60
2023/09/07 03:57:49;;;;;;;;;;;;;;;25.79;47.24;101525.63;5074223;28;20405;-59
2023/09/07 04:00:17;;;;;;;;;;;;;;;25.80;47.33;101529.19;5072723;28;19925;-59
2023/09/07 04:02:47;;;;;;;;;;;;;;;25.79;47.27;101528.34;5072860;28;19928;-60
2023/09/07 04:05:15;;;;;;;;;;;;;;;25.80;47.37;101529.19;5072867;28;19925;-59
2023/09/07 04:07:42;;;;;;;;;;;;;;;25.79;47.35;101531.06;5073981;28;19931;-59
2023/09/07 04:10:09;;;;;;;;;;;;;;;25.79;47.26;101522.94;5072354;28;19925;-57
2023/09/07 04:12:36;;;;;;;;;;;;;;;25.79;47.23;101525.63;5072421;28;19925;-57
2023/09/07 04:15:04;;;;;;;;;;;;;;;25.79;47.32;101524.78;5072503;28;19932;-57
2023/09/07 04:17:39;;;;;;;;;;;;;;;25.80;47.18;101523.78;5074131;28;19932;-58
2023/09/07 04:20:09;;;;;;;;;;;;;;;25.80;47.10;101529.19;5073951;28;19935;-59
2023/09/07 04:22:36;;;;;;;;;;;;;;;25.79;47.13;101527.50;5072725;28;19947;-59
2023/09/07 04:25:03;;;;;;;;;;;;;;;25.79;47.15;101524.78;5067657;28;20290;-59
2023/09/07 04:27:30;;;;;;;;;;;;;;;25.78;47.18;101529.38;5072413;28;19924;-60
2023/09/07 04:29:58;;;;;;;;;;;;;;;25.79;47.18;101532.94;5055852;28;19929;-58
2023/09/07 04:32:26;;;;;;;;;;;;;;;25.79;47.32;101528.34;5072621;28;19932;-58
2023/09/07 04:34:59;;;;;;;;;;;;;;;25.78;47.14;101531.22;5072721;28;19932;-58
2023/09/07 04:37:26;;;;;;;;;;;;;;;25.78;47.26;101534.78;5072739;28;20371;-58
2023/09/07 04:39:53;;;;;;;;;;;;;;;25.78;47.24;101532.09;5072606;28;19932;-59
2023/09/07 04:42:22;;;;;;;;;;;;;;;25.79;47.00;101535.63;5072485;28;19925;-59
2023/09/07 04:44:49;;;;;;;;;;;;;;;25.78;47.01;101540.22;5098310;28;19929;-59
2023/09/07 04:47:16;;;;;;;;;;;;;;;25.78;47.10;101532.09;5072282;28;19947;-59
2023/09/07 04:49:48;;;;;;;;;;;;;;;25.78;47.14;101534.78;5073430;28;19924;-59
2023/09/07 04:52:16;;;;;;;;;;;;;;;25.78;47.10;101533.94;5072450;28;20280;-59
2023/09/07 04:54:43;;;;;;;;;;;;;;;25.78;47.17;101539.38;5073821;28;20477;-60
2023/09/07 04:57:12;;;;;;;;;;;;;;;25.77;47.00;101538.53;5071913;28;19924;-59
2023/09/07 04:59:40;;;;;;;;;;;;;;;25.77;46.92;101538.53;5076346;28;20247;-58
2023/09/07 05:02:07;;;;;;;;;;;;;;;25.78;46.95;101542.09;5076262;28;20275;-58
2023/09/07 05:04:34;;;;;;;;;;;;;;;25.77;47.03;101537.63;5109937;28;19924;-58
2023/09/07 05:07:01;;;;;;;;;;;;;;;25.77;47.07;101540.34;5076226;28;19932;-58
2023/09/07 05:09:29;;;;;;;;;;;;;;;25.77;46.98;101541.22;5077486;28;19928;-58
2023/09/07 05:11:57;;;;;;;;;;;;;;;25.78;46.92;101544.78;5075785;28;19999;-58
2023/09/07 05:14:25;;;;;;;;;;;;;;;25.77;46.98;101543.06;5076015;28;19925;-58
2023/09/07 05:16:52;;;;;;;;;;;;;;;25.77;46.92;101545.78;5076178;28;20286;-58
2023/09/07 05:19:21;;;;;;;;;;;;;;;25.77;47.12;101545.78;5076049;28;19947;-58
2023/09/07 05:21:48;;;;;;;;;;;;;;;25.77;46.96;101543.94;5076067;28;19951;-58
2023/09/07 05:24:15;;;;;;;;;;;;;;;25.76;46.83;101544.06;5109056;28;19924;-58
2023/09/07 05:26:43;;;;;;;;;;;;;;;25.78;46.95;101561.06;5075465;28;20390;-57
2023/09/07 05:29:11;;;;;;;;;;;;;;;25.76;47.04;101561.16;5075387;28;20482;-59
2023/09/07 05:31:38;;;;;;;;;;;;;;;25.76;47.06;101561.16;5075538;28;20392;-58
2023/09/07 05:34:05;;;;;;;;;;;;;;;25.77;46.89;101565.66;5077142;28;20302;-58
2023/09/07 05:36:33;;;;;;;;;;;;;;;25.78;47.16;101566.50;5074874;28;19925;-58
2023/09/07 05:39:02;;;;;;;;;;;;;;;25.77;46.97;101562.06;5073249;28;19995;-58
2023/09/07 05:41:30;;;;;;;;;;;;;;;25.76;46.80;101563.03;5072932;28;19932;-58
2023/09/07 05:43:57;;;;;;;;;;;;;;;25.77;46.95;101573.78;5075322;28;19932;-58
2023/09/07 05:46:24;;;;;;;;;;;;;;;25.76;46.82;101572.03;5075290;28;19924;-58
2023/09/07 05:48:51;;;;;;;;;;;;;;;25.76;47.08;101573.88;5075343;28;20282;-58
2023/09/07 05:51:19;;;;;;;;;;;;;;;25.76;46.82;101577.44;5076621;28;19938;-58
2023/09/07 05:53:46;;;;;;;;;;;;;;;25.76;46.75;101573.88;5092345;28;19925;-58
2023/09/07 05:56:13;;;;;;;;;;;;;;;25.76;47.13;101580.16;5075255;28;19931;-58
2023/09/07 05:58:41;;;;;;;;;;;;;;;25.76;47.10;101576.59;5075397;28;19932;-58
2023/09/07 06:01:08;;;;;;;;;;;;;;;25.77;47.01;101583.75;5076432;28;19928;-58
2023/09/07 06:03:36;;;;;;;;;;;;;;;25.76;47.03;101588.28;5076271;28;19931;-58
2023/09/07 06:06:03;;;;;;;;;;;;;;;25.77;47.15;101583.75;5074365;28;19925;-58
2023/09/07 06:08:31;;;;;;;;;;;;;;;25.77;47.34;101581.03;5074345;28;20382;-59
2023/09/07 06:10:59;;;;;;;;;;;;;;;25.77;47.27;101581.91;5074650;28;19935;-59
2023/09/07 06:13:27;;;;;;;;;;;;;;;25.78;47.25;101571.91;5074805;28;19931;-60
2023/09/07 06:15:54;;;;;;;;;;;;;;;25.78;47.10;101578.19;5075990;28;19931;-60
2023/09/07 06:18:21;;;;;;;;;;;;;;;25.78;47.11;101574.63;5058888;28;19931;-58
2023/09/07 06:20:48;;;;;;;;;;;;;;;25.80;47.22;101583.44;5074351;28;19924;-58
2023/09/07 06:23:16;;;;;;;;;;;;;;;25.80;46.97;101591.59;5075018;28;19924;-58
2023/09/07 06:25:43;;;;;;;;;;;;;;;25.80;47.15;101586.16;5074779;28;19931;-58
2023/09/07 06:28:10;;;;;;;;;;;;;;;25.81;47.18;101587.88;5076247;28;20394;-59
2023/09/07 06:30:37;;;;;;;;;;;;;;;25.82;47.39;101589.59;5075519;28;19932;-58
2023/09/07 06:33:05;;;;;;;;;;;;;;;25.81;47.37;101588.72;5074658;28;20306;-60
2023/09/07 06:35:34;;;;;;;;;;;;;;;25.75;47.18;101583.88;5075692;28;19931;-62
2023/09/07 06:38:02;;;;;;;;;;;;;;;25.70;47.22;101588.94;5074479;28;19924;-60
2023/09/07 06:40:29;;;;;;;;;;;;;;;25.61;47.32;101588.00;5073464;28;20398;-60
2023/09/07 06:42:58;;;;;;;;;;;;;;;25.52;47.63;101585.34;5074256;28;19932;-60
2023/09/07 06:45:27;;;;;;;;;;;;;;;25.40;47.75;101582.91;5074528;28;19924;-60
2023/09/07 06:47:54;;;;;;;;;;;;;;;25.32;48.03;101581.94;5078747;28;19932;-60
2023/09/07 06:50:24;;;;;;;;;;;;;;;25.25;47.85;101579.00;5078094;28;19924;-60
2023/09/07 06:52:51;;;;;;;;;;;;;;;25.22;47.92;101576.59;5081358;28;19925;-60
2023/09/07 06:55:20;;;;;;;;;;;;;;;25.21;48.14;101582.19;5073322;28;19936;-60
2023/09/07 06:57:47;;;;;;;;;;;;;;;25.21;48.41;101590.31;5073195;28;20294;-60
2023/09/07 07:00:15;;;;;;;;;;;;;;;25.21;48.31;101593.00;5078124;28;20290;-60
2023/09/07 07:02:43;;;;;;;;;;;;;;;25.19;48.38;101595.84;5082159;28;19932;-60
2023/09/07 07:05:10;;;;;;;;;;;;;;;25.14;48.38;101599.03;5079980;28;19924;-60
2023/09/07 07:07:39;;;;;;;;;;;;;;;25.08;48.62;101602.31;5077946;28;19931;-60
2023/09/07 07:10:06;;;;;;;;;;;;;;;25.00;48.50;101599.53;5077858;28;19925;-60
2023/09/07 07:12:38;;;;;;;;;;;;;;;24.95;48.62;101598.25;5074810;28;20268;-60
2023/09/07 07:15:07;;;;;;;;;;;;;;;24.92;48.88;101599.41;5072932;28;19929;-60
2023/09/07 07:17:34;;;;;;;;;;;;;;;24.88;49.05;101600.72;5072609;28;20402;-60
2023/09/07 07:20:01;;;;;;;;;;;;;;;24.87;49.34;101601.69;5072273;28;19928;-61
2023/09/07 07:22:29;;;;;;;;;;;;;;;24.85;49.43;101601.00;5072941;28;19928;-62
2023/09/07 07:24:59;;;;;;;;;;;;;;;24.82;49.53;101601.31;5074212;28;20306;-60
2023/09/07 07:27:26;;;;;;;;;;;;;;;24.83;49.27;101603.00;5073249;28;19924;-59
2023/09/07 07:29:53;;;;;;;;;;;;;;;24.85;49.43;101609.13;5072930;28;19924;-59
2023/09/07 07:32:20;;;;;;;;;;;;;;;24.87;49.36;101604.41;5072850;28;19932;-62
2023/09/07 07:34:49;;;;;;;;;;;;;;;24.87;49.34;101608.00;5072684;28;19925;-62
2023/09/07 07:37:16;;;;;;;;;;;;;;;24.89;49.37;101607.84;5073842;28;19929;-62
2023/09/07 07:39:43;;;;;;;;;;;;;;;24.88;49.53;101601.56;5074268;28;19929;-61
2023/09/07 07:42:12;;;;;;;;;;;;;;;24.87;49.70;101604.41;5072520;28;20300;-61
2023/09/07 07:44:40;;;;;;;;;;;;;;;24.85;49.98;101604.56;5072950;28;19939;-62
2023/09/07 07:47:08;;;;;;;;;;;;;;;24.86;50.01;101602.72;5072610;28;19947;-61
2023/09/07 07:49:36;;;;;;;;;;;;;;;24.88;49.79;101603.44;5073741;28;19924;-61
2023/09/07 07:52:04;;;;;;;;;;;;;;;24.92;49.92;101607.53;5072553;28;19925;-62
2023/09/07 07:54:33;;;;;;;;;;;;;;;24.93;50.03;101598.41;5064087;28;20309;-61
2023/09/07 07:57:01;;;;;;;;;;;;;;;24.92;50.16;101607.53;5072290;28;19931;-61
2023/09/07 07:59:29;;;;;;;;;;;;;;;24.91;50.21;101611.22;5072557;28;19929;-60
2023/09/07 08:01:56;;;;;;;;;;;;;;;24.90;50.21;101609.53;5072368;28;19944;-60
2023/09/07 08:04:23;;;;;;;;;;;;;;;24.87;50.26;101608.00;5073782;28;20259;-59
2023/09/07 08:06:54;;;;;;;;;;;;;;;24.90;49.98;101604.97;5072136;28;20306;-60
2023/09/07 08:09:21;;;;;;;;;;;;;;;24.95;50.03;101611.78;5064743;28;19931;-60
2023/09/07 08:11:50;;;;;;;;;;;;;;;24.96;50.28;101608.94;5072797;28;19931;-61
2023/09/07 08:14:17;;;;;;;;;;;;;;;24.99;50.09;101613.19;5072204;28;20393;-61
2023/09/07 08:16:44;;;;;;;;;;;;;;;25.01;49.88;101606.63;5073573;28;19924;-62
2023/09/07 08:19:12;;;;;;;;;;;;;;;25.03;50.07;101612.75;5071871;28;20398;-59
2023/09/07 08:21:41;;;;;;;;;;;;;;;25.04;50.04;101611.75;5071834;28;19924;-59
2023/09/07 08:24:09;;;;;;;;;;;;;;;25.07;50.17;101610.59;5072153;28;19939;-59
2023/09/07 08:26:37;;;;;;;;;;;;;;;25.09;50.03;101614.88;5073493;28;19924;-59
2023/09/07 08:29:08;;;;;;;;;;;;;;;25.09;50.29;101606.75;5073390;28;19931;-59
2023/09/07 08:31:35;;;;;;;;;;;;;;;25.12;50.08;101602.91;5073085;28;19924;-59
2023/09/07 08:34:04;;;;;;;;;;;;;;;25.12;50.30;101605.63;5073550;28;19932;-59
2023/09/07 08:36:33;;;;;;;;;;;;;;;25.13;50.24;101604.59;5071949;28;20382;-59
2023/09/07 08:39:05;;;;;;;;;;;;;;;25.15;50.12;101608.84;5073261;28;20294;-61
2023/09/07 08:41:43;;;;;;;;;;;;;;;25.14;50.69;101609.00;5073187;28;20374;-61
2023/09/07 08:44:28;;;;;;;;;;;;;;;25.15;50.74;101606.16;5073158;28;19931;-61
2023/09/07 08:46:55;;;;;;;;;;;;;;;25.16;50.95;101604.31;5073125;28;19931;-61
2023/09/07 08:49:23;;;;;;;;;;;;;;;25.18;50.93;101596.03;5074333;28;19925;-59
2023/09/07 08:51:51;;;;;;;;;;;;;;;25.21;50.54;101590.31;5073219;28;19935;-59
2023/09/07 08:54:19;;;;;;;;;;;;;;;25.25;50.66;101591.69;5073157;28;20390;-59
2023/09/07 08:56:46;;;;;;;;;;;;;;;25.28;50.58;101594.09;5073156;28;19932;-59
2023/09/07 08:59:14;;;;;;;;;;;;;;;25.28;50.85;101597.69;5073364;28;19925;-59
2023/09/07 09:01:41;;;;;;;;;;;;;;;25.28;51.21;101588.66;5073146;28;20289;-59
2023/09/07 09:04:08;;;;;;;;;;;;;;;25.27;51.33;101595.09;5073258;28;19932;-59
2023/09/07 09:06:36;;;;;;;;;;;;;;;25.27;51.46;101592.38;5072988;28;20401;-59
2023/09/07 09:09:06;;;;;;;;;;;;;;;25.28;51.70;101596.78;5072739;28;19925;-59
2023/09/07 09:11:33;;;;;;;;;;;;;;;25.28;51.97;101594.09;5072967;28;19925;-59
2023/09/07 09:14:05;;;;;;;;;;;;;;;25.30;51.70;101597.50;5072956;28;19929;-59
2023/09/07 09:16:32;;;;;;;;;;;;;;;25.34;51.36;101594.34;5073040;28;19924;-59
2023/09/07 09:18:59;;;;;;;;;;;;;;;25.38;51.29;101592.19;5073111;28;20263;-60
2023/09/07 09:21:27;;;;;;;;;;;;;;;25.41;51.19;101583.75;5072898;28;19931;-61
2023/09/07 09:23:56;;;;;;;;;;;;;;;25.44;51.18;101594.25;5071187;28;19936;-61
2023/09/07 09:26:24;;;;;;;;;;;;;;;25.47;51.06;101588.53;5068261;28;19925;-61
2023/09/07 09:28:56;;;;;;;;;;;;;;;25.51;50.96;101598.06;5073217;28;19925;-59
2023/09/07 09:31:24;;;;;;;;;;;;;;;25.53;51.09;101584.38;5072799;28;19924;-59
2023/09/07 09:33:51;;;;;;;;;;;;;;;25.56;51.09;101589.47;5072825;28;19947;-59
2023/09/07 09:36:20;;;;;;;;;;;;;;;25.57;51.00;101585.78;5072663;28;19932;-59
2023/09/07 09:38:49;;;;;;;;;;;;;;;25.60;50.84;101588.16;5065129;28;19924;-60
2023/09/07 09:41:17;;;;;;;;;;;;;;;25.61;50.83;101585.31;5072738;28;19929;-61
2023/09/07 09:43:45;;;;;;;;;;;;;;;25.62;50.74;101583.44;5066027;28;20382;-61
2023/09/07 09:46:13;;;;;;;;;;;;;;;25.64;50.75;101585.00;5076446;28;19951;-61
2023/09/07 09:48:42;;;;;;;;;;;;;;;25.67;50.50;101591.94;5075110;28;20297;-60
2023/09/07 09:51:11;;;;;;;;;;;;;;;25.68;50.66;101584.66;5076270;28;19931;-61
2023/09/07 09:53:38;;;;;;;;;;;;;;;25.70;50.67;101582.66;5076226;28;19932;-61
2023/09/07 09:56:05;;;;;;;;;;;;;;;25.71;50.81;101582.50;5076079;28;19947;-61
2023/09/07 09:58:33;;;;;;;;;;;;;;;25.72;50.70;101588.75;5076240;28;19932;-59
2023/09/07 10:01:05;;;;;;;;;;;;;;;25.73;50.64;101587.78;5076014;28;20382;-59
2023/09/07 10:03:33;;;;;;;;;;;;;;;25.73;50.63;101577.78;5076056;28;19931;-59
2023/09/07 10:06:10;;;;;;;;;;;;;;;25.76;50.77;101571.19;5075704;28;19936;-59
2023/09/07 10:08:38;;;;;;;;;;;;;;;25.76;50.67;101576.59;5076301;28;19947;-60
2023/09/07 10:11:11;;;;;;;;;;;;;;;25.76;50.65;101561.16;5075681;28;19928;-61
2023/09/07 10:13:38;;;;;;;;;;;;;;;25.79;50.64;101568.19;5075830;28;20379;-61
2023/09/07 10:16:09;;;;;;;;;;;;;;;25.80;50.40;101556.31;5074463;28;20306;-61
2023/09/07 10:18:38;;;;;;;;;;;;;;;25.79;50.58;101554.63;5075769;28;19925;-60
2023/09/07 10:21:06;;;;;;;;;;;;;;;25.78;50.74;101567.34;5075472;28;20299;-60
2023/09/07 10:23:40;;;;;;;;;;;;;;;25.76;50.73;101550.31;5075640;28;19932;-60
2023/09/07 10:26:14;;;;;;;;;;;;;;;25.75;50.64;101551.34;5068446;28;19924;-60
2023/09/07 10:28:45;;;;;;;;;;;;;;;25.74;50.73;101551.50;5075632;28;19932;-59
2023/09/07 10:31:17;;;;;;;;;;;;;;;25.74;50.71;101543.38;5074874;28;19924;-58
2023/09/07 10:33:44;;;;;;;;;;;;;;;25.72;50.89;101546.22;5075681;28;19951;-60
2023/09/07 10:36:22;;;;;;;;;;;;;;;25.75;50.96;101534.22;5073347;28;19944;-61
2023/09/07 10:38:49;;;;;;;;;;;;;;;25.79;50.80;101546.50;5069076;28;19932;-49
2023/09/07 10:41:16;;;;;;;;;;;;;;;25.83;50.81;101532.44;5075736;28;19924;-57
2023/09/07 10:43:50;;;;;;;;;;;;;;;25.86;50.42;101531.28;5074777;28;19924;-57
2023/09/07 10:46:21;;;;;;;;;;;;;;;25.87;50.42;101522.97;5075280;28;19924;-57
2023/09/07 10:48:50;;;;;;;;;;;;;;;25.90;50.06;101524.53;5075556;28;19931;-62
2023/09/07 10:51:18;;;;;;;;;;;;;;;25.88;50.08;101519.25;5075366;28;19924;-61
2023/09/07 10:53:45;;;;;;;;;;;;;;;25.88;49.97;101521.13;5075300;28;20397;-58
2023/09/07 10:56:13;;;;;;;;;;;;;;;25.88;49.92;101519.25;5074849;28;20271;-59
2023/09/07 10:58:43;;;;;;;;;;;;;;;25.91;49.81;101518.09;5074915;28;20305;-57
2023/09/07 11:01:11;;;;;;;;;;;;;;;25.92;49.41;101517.06;5075020;28;20378;-57
2023/09/07 11:03:41;;;;;;;;;;;;;;;25.96;49.43;101513.03;5075028;28;19995;-56
2023/09/07 11:06:10;;;;;;;;;;;;;;;25.99;49.52;101507.31;5074636;28;19925;-57
2023/09/07 11:08:38;;;;;;;;;;;;;;;26.02;49.37;101508.84;5073430;28;19924;-56
2023/09/07 11:11:05;;;;;;;;;;;;;;;26.04;49.39;101501.41;5074742;28;19928;-58
2023/09/07 11:13:33;;;;;;;;;;;;;;;26.07;49.26;101501.94;5075031;28;19924;-55
2023/09/07 11:16:01;;;;;;;;;;;;;;;26.07;49.41;101491.06;5074689;28;19928;-54
2023/09/07 11:18:28;;;;;;;;;;;;;;;26.07;49.64;101482.94;5074899;28;19928;-53
2023/09/07 11:20:56;;;;;;;;;;;;;;;26.07;49.59;101490.22;5073326;28;19928;-54
2023/09/07 11:23:24;;;;;;;;;;;;;;;26.07;49.65;101479.38;5072925;28;19931;-55
2023/09/07 11:25:54;;;;;;;;;;;;;;;26.07;49.91;101490.22;5073425;28;20398;-55
2023/09/07 11:28:24;;;;;;;;;;;;;;;26.07;50.03;101487.50;5073161;28;19924;-58
2023/09/07 11:30:53;;;;;;;;;;;;;;;26.05;50.13;101476.84;5074354;28;19931;-59
2023/09/07 11:33:21;;;;;;;;;;;;;;;26.05;50.03;101479.53;5074893;28;19931;-59
2023/09/07 11:35:49;;;;;;;;;;;;;;;26.04;49.86;101475.09;5074463;28;20291;-55
2023/09/07 11:38:16;;;;;;;;;;;;;;;26.04;49.67;101479.69;5074516;28;19932;-59
2023/09/07 11:40:44;;;;;;;;;;;;;;;26.05;49.65;101470.53;5066391;28;20378;-59
2023/09/07 11:43:12;;;;;;;;;;;;;;;26.06;49.51;101467.66;5074431;28;19931;-59
2023/09/07 11:45:40;;;;;;;;;;;;;;;26.12;48.28;101467.00;5066620;28;19925;-58
2023/09/07 11:48:09;;;;;;;;;;;;;;;26.14;48.32;101466.88;5073998;28;20330;-52
2023/09/07 11:50:37;;;;;;;;;;;;;;;26.15;48.53;101465.84;5073255;28;19924;-55
2023/09/07 11:53:05;;;;;;;;;;;;;;;26.16;48.56;101466.69;5072540;28;20302;-58
2023/09/07 11:55:34;;;;;;;;;;;;;;;26.16;48.42;101456.69;5072714;28;19925;-58
2023/09/07 11:58:02;;;;;;;;;;;;;;;26.17;48.40;101461.13;5074172;28;19979;-55
2023/09/07 12:00:31;;;;;;;;;;;;;;;26.19;48.32;101455.53;5073994;28;19935;-57
2023/09/07 12:02:59;;;;;;;;;;;;;;;26.22;48.40;101461.47;5073491;28;20290;-59
2023/09/07 12:05:26;;;;;;;;;;;;;;;26.25;48.09;101461.16;5074226;28;19924;-58
2023/09/07 12:07:54;;;;;;;;;;;;;;;26.27;48.14;101453.69;5073331;28;20666;-57
2023/09/07 12:10:21;;;;;;;;;;;;;;;26.29;48.16;101451.69;5074038;28;19924;-57
2023/09/07 12:12:49;;;;;;;;;;;;;;;26.31;47.93;101449.63;5073809;28;19947;-56
2023/09/07 12:15:16;;;;;;;;;;;;;;;26.29;48.28;101434.53;5073877;28;19925;-58
2023/09/07 12:17:43;;;;;;;;;;;;;;;26.31;48.37;101443.38;5073796;28;19936;-59
2023/09/07 12:20:14;;;;;;;;;;;;;;;26.32;48.16;101435.03;5073759;28;20317;-60
2023/09/07 12:22:41;;;;;;;;;;;;;;;26.34;48.28;101434.91;5073414;28;19924;-58
2023/09/07 12:25:10;;;;;;;;;;;;;;;26.35;48.32;101428.44;5073867;28;19931;-57
2023/09/07 12:27:43;;;;;;;;;;;;;;;26.35;48.29;101418.44;5073770;28;19924;-59
2023/09/07 12:30:22;;;;;;;;;;;;;;;26.37;48.25;101419.13;5073913;28;19924;-58
2023/09/07 12:32:50;;;;;;;;;;;;;;;26.38;48.02;101415.41;5073577;28;19995;-58
2023/09/07 12:35:19;;;;;;;;;;;;;;;26.39;48.21;101416.25;5073431;28;19932;-57
2023/09/07 12:37:47;;;;;;;;;;;;;;;26.39;48.19;101410.81;5073714;28;19924;-58
2023/09/07 12:40:14;;;;;;;;;;;;;;;26.40;48.23;101407.09;5072253;28;20378;-62